Time;durP1;ratioP1;P1;durP2;ratioP2;P2;SDS_P1;SDS_P2;PMS_P1;PMS_P2;Temp;Humidity;BMP_temperature;BMP_pressure;BME280_temperature;BME280_humidity;BME280_pressure;Samples;Min_cycle;Max_cycle;Signal;HPM_P1;HPM_P2
2022/01/27 00:03:07;;;;;;;3.03;2.42;;;;;;;20.35;46.51;102203.34;4974116;28;20077;-73
2022/01/27 00:05:33;;;;;;;3.13;2.58;;;;;;;20.48;46.02;102205.84;4973299;28;20034;-72
2022/01/27 00:10:44;;;;;;;3.70;2.80;;;;;;;20.52;45.93;102202.34;4973988;28;20454;-72
2022/01/27 00:13:13;;;;;;;3.17;2.53;;;;;;;20.54;45.91;102197.25;4974051;28;20033;-72
2022/01/27 00:15:41;;;;;;;2.65;2.10;;;;;;;20.46;46.13;102197.03;4974010;28;20023;-73
2022/01/27 00:18:17;;;;;;;3.28;2.13;;;;;;;20.56;45.85;102197.75;4974008;28;20038;-72
2022/01/27 00:20:45;;;;;;;4.50;2.90;;;;;;;20.36;46.72;102202.19;4973947;28;20109;-72
2022/01/27 00:23:11;;;;;;;3.72;2.50;;;;;;;20.46;46.37;102212.88;4974075;28;20469;-72
2022/01/27 00:25:37;;;;;;;2.92;2.35;;;;;;;20.36;46.57;102208.56;4973881;28;20113;-72
2022/01/27 00:28:05;;;;;;;3.15;2.58;;;;;;;20.43;46.30;102213.53;4972675;28;20178;-72
2022/01/27 00:30:35;;;;;;;3.20;2.38;;;;;;;20.01;47.71;102212.84;4974220;28;20034;-72
2022/01/27 00:33:03;;;;;;;3.13;2.40;;;;;;;20.56;46.23;102219.97;4974132;28;20030;-72
2022/01/27 00:35:29;;;;;;;3.58;2.22;;;;;;;20.55;46.22;102204.44;4972523;28;20034;-73
2022/01/27 00:37:55;;;;;;;3.75;2.17;;;;;;;20.64;45.96;102205.97;4972576;28;20393;-75
2022/01/27 00:40:21;;;;;;;2.90;2.03;;;;;;;20.58;46.19;102196.22;4973821;28;20027;-74
2022/01/27 00:42:48;;;;;;;3.10;2.22;;;;;;;20.41;46.87;102210.31;4973717;28;20473;-72
2022/01/27 00:45:14;;;;;;;3.95;2.20;;;;;;;20.70;45.94;102201.78;4973931;28;20045;-72
2022/01/27 00:47:39;;;;;;;3.10;2.25;;;;;;;20.58;46.43;102214.88;4973398;28;20489;-72
2022/01/27 00:50:06;;;;;;;3.50;2.00;;;;;;;20.54;46.44;102202.81;4973635;28;20034;-73
2022/01/27 00:52:39;;;;;;;3.45;2.53;;;;;;;20.72;45.88;102227.25;4973628;28;20037;-72
2022/01/27 00:55:07;;;;;;;2.95;2.55;;;;;;;20.49;46.37;102224.09;4973644;28;20106;-73
2022/01/27 01:00:17;;;;;;;3.47;2.50;;;;;;;20.69;46.15;102216.00;4973572;28;20051;-73
2022/01/27 01:02:54;;;;;;;3.20;2.20;;;;;;;20.65;46.37;102215.09;4973508;28;20058;-72
2022/01/27 01:05:47;;;;;;;2.78;2.33;;;;;;;20.38;47.21;102228.44;4972431;28;20482;-73
2022/01/27 01:17:19;;;;;;;3.30;2.15;;;;;;;20.50;46.75;102225.72;4973456;28;20042;-73
2022/01/27 01:19:32;;;;;;;2.85;2.10;;;;;;;20.57;46.81;102219.59;4966470;28;20477;-72
2022/01/27 01:32:50;;;;;;;3.58;2.55;;;;;;;20.72;46.41;102237.56;4977056;28;20074;-73
2022/01/27 01:35:18;;;;;;;3.83;2.60;;;;;;;20.67;46.54;102237.78;4976898;28;20030;-72
2022/01/27 01:37:44;;;;;;;2.63;2.20;;;;;;;20.78;46.39;102237.00;4976909;28;20031;-73
2022/01/27 01:40:16;;;;;;;2.90;2.28;;;;;;;20.77;46.24;102224.22;4976888;28;20038;-73
2022/01/27 01:42:43;;;;;;;4.45;2.60;;;;;;;20.40;47.32;102225.31;4976843;28;20112;-72
2022/01/27 01:45:19;;;;;;;4.65;3.08;;;;;;;20.59;46.82;102233.13;4976867;28;20030;-73
2022/01/27 01:47:46;;;;;;;4.45;3.13;;;;;;;20.61;46.68;102234.41;4976588;28;20078;-72
2022/01/27 01:50:13;;;;;;;4.10;3.38;;;;;;;20.76;46.21;102235.69;4976471;28;20478;-72
2022/01/27 01:52:40;;;;;;;4.43;3.45;;;;;;;20.52;47.05;102238.44;4976612;28;20030;-74
2022/01/27 01:55:08;;;;;;;5.63;3.25;;;;;;;20.59;46.90;102233.13;4975390;28;20409;-74
2022/01/27 01:57:34;;;;;;;3.85;3.17;;;;;;;20.72;46.60;102237.56;4976523;28;20114;-74
2022/01/27 02:00:00;;;;;;;5.45;3.58;;;;;;;20.73;46.48;102239.19;4976390;28;20470;-73
2022/01/27 02:02:26;;;;;;;4.10;3.03;;;;;;;20.74;46.42;102229.69;4975233;28;20117;-74
2022/01/27 02:04:54;;;;;;;3.70;3.17;;;;;;;20.80;46.36;102222.75;4976667;28;20050;-74
2022/01/27 02:18:08;;;;;;;2.58;1.90;;;;;;;20.75;46.41;102222.97;4976322;28;20038;-74
2022/01/27 02:20:40;;;;;;;3.50;1.58;;;;;;;20.62;46.88;102226.88;4976209;28;20026;-74
2022/01/27 02:23:08;;;;;;;3.90;1.58;;;;;;;20.55;46.93;102244.13;4976148;28;20034;-75
2022/01/27 02:25:34;;;;;;;1.40;1.17;;;;;;;20.54;47.31;102247.25;4995142;28;20507;-75
2022/01/27 02:27:59;;;;;;;1.50;1.15;;;;;;;20.63;46.89;102245.16;4984049;28;20022;-74
2022/01/27 02:30:26;;;;;;;1.30;1.20;;;;;;;20.45;47.50;102244.56;4984676;28;20487;-73
2022/01/27 02:32:53;;;;;;;2.00;1.20;;;;;;;20.81;46.58;102241.03;4983717;28;20077;-75
2022/01/27 02:35:21;;;;;;;2.35;1.20;;;;;;;20.81;46.55;102249.38;4985227;28;20025;-73
2022/01/27 02:37:48;;;;;;;2.40;1.70;;;;;;;20.76;46.67;102244.84;4985054;28;20054;-73
2022/01/27 02:40:39;;;;;;;1.60;1.50;;;;;;;20.67;47.00;102257.22;4981728;28;20018;-72
2022/01/27 02:43:05;;;;;;;2.20;1.52;;;;;;;20.83;46.44;102257.34;4982878;28;20636;-73
2022/01/27 02:46:03;;;;;;;1.55;1.45;;;;;;;20.81;46.56;102254.91;4985300;28;20026;-73
2022/01/27 02:48:28;;;;;;;1.58;1.13;;;;;;;20.51;47.19;102259.84;4984886;28;20035;-73
2022/01/27 02:50:54;;;;;;;1.40;1.05;;;;;;;20.60;47.06;102262.53;4982036;28;20034;-73
2022/01/27 02:53:20;;;;;;;1.15;1.00;;;;;;;20.55;47.44;102265.53;4984911;28;20037;-72
2022/01/27 02:55:45;;;;;;;1.20;1.02;;;;;;;20.73;46.70;102266.94;4984587;28;20031;-72
2022/01/27 02:58:11;;;;;;;1.55;1.13;;;;;;;20.84;46.52;102273.66;4982980;28;20019;-74
2022/01/27 03:00:37;;;;;;;2.80;1.08;;;;;;;20.83;46.30;102266.50;4985012;28;20025;-73
2022/01/27 03:03:02;;;;;;;2.42;1.15;;;;;;;20.75;46.47;102265.44;4983759;28;20042;-73
2022/01/27 03:05:28;;;;;;;2.17;1.30;;;;;;;20.82;46.27;102264.88;4983623;28;20019;-73
2022/01/27 03:07:53;;;;;;;1.50;1.05;;;;;;;20.83;46.00;102263.72;4984893;28;20389;-73
2022/01/27 03:10:20;;;;;;;2.03;1.05;;;;;;;20.83;46.18;102272.03;4983769;28;20031;-73
2022/01/27 03:12:56;;;;;;;2.42;1.23;;;;;;;20.74;46.25;102268.56;4983416;28;20035;-73
2022/01/27 03:15:22;;;;;;;1.67;1.05;;;;;;;20.61;46.53;102264.94;4983770;28;20023;-74
2022/01/27 03:17:47;;;;;;;1.90;1.27;;;;;;;20.53;46.69;102270.63;4983176;28;20037;-73
2022/01/27 03:20:13;;;;;;;1.80;1.42;;;;;;;20.70;45.99;102275.97;4985017;28;20077;-73
2022/01/27 03:22:38;;;;;;;2.88;1.40;;;;;;;20.69;46.05;102280.69;4983393;28;20386;-73
2022/01/27 03:25:05;;;;;;;4.00;1.60;;;;;;;20.71;46.04;102280.38;4985080;28;20029;-73
2022/01/27 03:27:30;;;;;;;1.85;1.50;;;;;;;20.78;45.53;102280.59;4982569;28;20026;-73
2022/01/27 03:29:56;;;;;;;3.60;1.40;;;;;;;20.60;46.27;102281.97;4983281;28;20027;-73
2022/01/27 03:32:22;;;;;;;2.35;1.35;;;;;;;20.52;46.32;102280.09;4983400;28;20097;-73
2022/01/27 03:34:47;;;;;;;8.27;1.98;;;;;;;20.66;45.75;102277.81;4982929;28;20022;-73
2022/01/27 03:37:13;;;;;;;5.47;1.20;;;;;;;20.54;45.94;102280.56;4984344;28;20751;-74
2022/01/27 03:39:40;;;;;;;2.53;1.10;;;;;;;20.47;46.09;102275.56;4982765;28;20085;-74
2022/01/27 03:42:07;;;;;;;5.25;1.50;;;;;;;20.47;45.98;102281.13;4982802;28;20037;-74
2022/01/27 03:44:33;;;;;;;2.47;1.10;;;;;;;20.48;45.81;102261.38;4984169;28;20547;-78
2022/01/27 03:47:00;;;;;;;3.83;1.27;;;;;;;20.49;45.68;102279.63;4982394;28;20453;-76
2022/01/27 03:49:26;;;;;;;2.67;1.15;;;;;;;20.39;45.96;102274.47;4982934;28;20497;-73
2022/01/27 03:51:52;;;;;;;3.00;1.20;;;;;;;20.45;45.76;102275.09;4983879;28;20038;-73
2022/01/27 03:54:18;;;;;;;4.85;1.73;;;;;;;20.05;46.70;102280.38;4982112;28;20098;-74
2022/01/27 03:56:44;;;;;;;5.57;1.50;;;;;;;20.20;46.27;102276.97;4982948;28;20041;-74
2022/01/27 03:59:10;;;;;;;6.25;2.13;;;;;;;20.17;46.35;102272.09;4983880;28;20014;-73
2022/01/27 04:01:37;;;;;;;7.65;1.52;;;;;;;19.80;47.26;102266.41;4982395;28;20026;-73
2022/01/27 04:04:03;;;;;;;4.70;1.40;;;;;;;20.02;46.36;102272.72;4983328;28;20105;-73
2022/01/27 04:06:39;;;;;;;4.70;1.55;;;;;;;19.88;46.50;102275.81;4983851;28;20041;-74
2022/01/27 04:09:08;;;;;;;6.68;1.67;;;;;;;19.87;46.52;102266.63;4983139;28;20030;-74
2022/01/27 04:11:34;;;;;;;10.77;2.40;;;;;;;19.64;46.92;102273.69;4981778;28;20536;-74
2022/01/27 04:14:00;;;;;;;9.63;2.85;;;;;;;19.82;46.41;102272.41;4983288;28;20033;-74
2022/01/27 04:16:26;;;;;;;8.35;2.30;;;;;;;19.94;46.01;102269.69;4983046;28;20493;-74
2022/01/27 04:18:52;;;;;;;10.75;1.75;;;;;;;19.80;46.14;102277.50;4981660;28;20019;-74
2022/01/27 04:21:18;;;;;;;6.43;2.00;;;;;;;19.91;45.69;102269.56;4982097;28;20484;-75
2022/01/27 04:23:44;;;;;;;7.32;1.80;;;;;;;19.74;45.82;102278.03;4982194;28;20023;-74
2022/01/27 04:26:12;;;;;;;5.22;1.92;;;;;;;19.70;45.76;102274.31;4982245;28;20034;-75
2022/01/27 04:28:39;;;;;;;9.60;2.47;;;;;;;19.49;46.27;102271.47;4983546;28;20061;-77
2022/01/27 04:31:07;;;;;;;7.20;2.10;;;;;;;19.47;46.29;102277.38;4982044;28;20035;-74
2022/01/27 04:33:35;;;;;;;8.20;2.15;;;;;;;19.64;45.57;102282.00;4984236;28;20022;-74
2022/01/27 04:36:06;;;;;;;9.13;1.92;;;;;;;19.42;46.03;102285.88;4981562;28;20022;-76
2022/01/27 04:38:57;;;;;;;7.43;1.67;;;;;;;19.59;45.59;102273.91;4981927;28;20073;-75
2022/01/27 04:41:33;;;;;;;8.15;2.05;;;;;;;19.52;45.59;102279.94;4978385;28;20027;-73
2022/01/27 04:44:17;;;;;;;7.25;1.85;;;;;;;19.25;46.17;102284.03;4993700;28;20034;-74
2022/01/27 04:49:10;;;;;;;10.90;2.95;;;;;;;19.00;46.52;102273.91;5001887;28;20029;-74
2022/01/27 04:51:35;;;;;;;10.90;1.80;;;;;;;19.15;46.13;102284.41;5004280;28;20057;-73
2022/01/27 04:56:31;;;;;;;8.13;1.85;;;;;;;18.89;46.54;102292.81;5008295;28;20472;-73
2022/01/27 04:59:02;;;;;;;6.65;2.35;;;;;;;18.85;46.63;102292.69;5009094;28;20017;-73
2022/01/27 05:01:36;;;;;;;7.15;2.05;;;;;;;18.85;46.41;102302.94;5008405;28;20393;-75
2022/01/27 05:04:07;;;;;;;8.98;2.13;;;;;;;19.14;45.68;102302.19;5005253;28;20080;-75
2022/01/27 05:06:33;;;;;;;10.95;2.58;;;;;;;19.14;45.61;102307.72;5007515;28;20037;-75
2022/01/27 05:08:59;;;;;;;8.05;2.42;;;;;;;19.05;45.80;102315.28;5007491;28;20030;-75
2022/01/27 05:11:29;;;;;;;9.07;2.30;;;;;;;18.93;46.17;102321.50;4996952;28;20033;-74
2022/01/27 05:14:02;;;;;;;10.15;3.10;;;;;;;19.03;45.83;102323.06;5009459;28;20026;-75
2022/01/27 05:16:28;;;;;;;16.20;2.88;;;;;;;19.15;45.44;102331.50;5008866;28;20034;-73
2022/01/27 05:18:54;;;;;;;12.38;3.38;;;;;;;19.01;45.71;102333.69;5007094;28;20018;-74
2022/01/27 05:21:20;;;;;;;8.50;2.00;;;;;;;19.05;45.72;102337.44;5004219;28;20053;-74
2022/01/27 05:23:46;;;;;;;9.93;1.90;;;;;;;19.11;45.58;102336.06;5003800;28;20112;-76
2022/01/27 05:26:11;;;;;;;14.85;3.65;;;;;;;19.26;45.13;102340.25;5001386;28;20465;-73
2022/01/27 05:28:37;;;;;;;15.15;2.85;;;;;;;19.19;45.25;102337.19;5005823;28;20030;-74
2022/01/27 05:31:05;;;;;;;10.55;3.40;;;;;;;19.28;45.16;102333.25;5006931;28;20053;-73
2022/01/27 05:33:31;;;;;;;8.57;2.17;;;;;;;19.26;45.19;102332.75;4992709;28;20069;-75
2022/01/27 05:35:56;;;;;;;12.68;2.92;;;;;;;19.33;44.98;102338.59;5005431;28;20038;-73
2022/01/27 05:38:22;;;;;;;11.57;3.20;;;;;;;19.23;45.10;102343.69;5003451;28;20105;-76
2022/01/27 05:40:48;;;;;;;15.63;2.38;;;;;;;19.11;45.31;102347.16;4999176;28;20038;-75
2022/01/27 05:43:13;;;;;;;11.73;2.50;;;;;;;19.26;44.92;102352.16;4999114;28;20030;-74
2022/01/27 05:45:40;;;;;;;10.13;2.00;;;;;;;19.14;44.96;102360.38;4999306;28;20050;-74
2022/01/27 05:48:07;;;;;;;16.98;3.58;;;;;;;19.22;44.77;102353.97;4998964;28;20113;-75
2022/01/27 05:50:33;;;;;;;10.25;2.78;;;;;;;19.30;44.44;102353.13;4997806;28;20493;-74
2022/01/27 05:52:59;;;;;;;17.40;3.65;;;;;;;19.20;44.82;102364.59;4998988;28;20058;-74
2022/01/27 05:55:25;;;;;;;9.20;2.17;;;;;;;19.27;44.54;102362.13;4998968;28;20536;-74
2022/01/27 05:57:51;;;;;;;8.65;2.45;;;;;;;19.22;44.75;102365.06;4998923;28;20038;-72
2022/01/27 06:00:17;;;;;;;13.10;4.07;;;;;;;19.31;44.45;102357.50;4999252;28;20105;-74
2022/01/27 06:02:43;;;;;;;8.55;2.38;;;;;;;19.31;44.50;102363.06;4998196;28;20050;-74
2022/01/27 06:05:09;;;;;;;14.00;3.55;;;;;;;19.34;44.34;102361.56;4994949;28;20066;-74
2022/01/27 06:07:35;;;;;;;13.55;3.13;;;;;;;19.26;44.45;102368.78;4995747;28;20027;-73
2022/01/27 06:10:01;;;;;;;7.45;2.10;;;;;;;19.37;44.38;102381.13;4995838;28;20049;-75
2022/01/27 06:12:27;;;;;;;12.32;2.80;;;;;;;19.36;44.11;102371.19;4995670;28;20033;-73
2022/01/27 06:14:52;;;;;;;16.52;3.08;;;;;;;19.30;44.19;102383.59;4996063;28;20026;-74
2022/01/27 06:17:18;;;;;;;13.85;2.80;;;;;;;19.40;43.93;102372.13;4995644;28;20026;-74
2022/01/27 06:19:45;;;;;;;19.27;2.67;;;;;;;19.38;43.98;102382.75;4995713;28;20023;-75
2022/01/27 06:22:12;;;;;;;15.23;2.80;;;;;;;19.41;43.83;102395.94;4995578;28;20030;-74
2022/01/27 06:24:42;;;;;;;12.88;3.00;;;;;;;19.33;43.75;102394.00;4995478;28;20400;-74
2022/01/27 06:27:07;;;;;;;;;;;;;;;19.27;43.98;102406.44;4995881;28;20113;-74
2022/01/27 06:29:34;;;;;;;8.13;2.38;;;;;;;19.39;43.57;102412.09;4995458;28;20013;-75
2022/01/27 06:32:00;;;;;;;9.35;2.95;;;;;;;19.37;43.63;102402.50;4995482;28;20022;-75
2022/01/27 06:34:26;;;;;;;10.20;3.38;;;;;;;19.31;43.63;102414.91;4995342;28;20058;-74
2022/01/27 06:36:52;;;;;;;13.82;2.65;;;;;;;19.36;43.79;102415.53;4995305;28;20057;-75
2022/01/27 06:39:17;;;;;;;13.70;3.25;;;;;;;19.41;43.36;102423.66;4995329;28;20026;-75
2022/01/27 06:41:44;;;;;;;11.35;2.38;;;;;;;19.44;43.29;102433.28;4995202;28;20112;-73
2022/01/27 06:44:10;;;;;;;23.38;3.75;;;;;;;19.33;43.52;102429.22;4995229;28;20097;-74
2022/01/27 06:46:36;;;;;;;20.05;4.43;;;;;;;19.33;43.23;102435.59;4994806;28;20137;-74
2022/01/27 06:49:05;;;;;;;22.80;4.68;;;;;;;19.31;43.30;102437.06;4995107;28;20053;-72
2022/01/27 06:51:32;;;;;;;11.20;2.63;;;;;;;19.37;43.07;102431.03;4995063;28;20027;-72
2022/01/27 06:53:59;;;;;;;12.48;4.28;;;;;;;19.32;43.13;102433.97;4995069;28;20034;-72
2022/01/27 06:56:27;;;;;;;11.95;2.53;;;;;;;19.30;43.04;102439.03;4994957;28;20034;-72
2022/01/27 06:58:54;;;;;;;11.32;2.53;;;;;;;19.25;42.91;102446.72;4994899;28;20026;-72
2022/01/27 07:01:20;;;;;;;18.58;3.33;;;;;;;19.22;43.17;102459.28;4994880;28;20552;-72
2022/01/27 07:03:46;;;;;;;11.85;2.85;;;;;;;19.21;43.19;102451.28;4995033;28;20033;-72
2022/01/27 07:06:12;;;;;;;13.38;3.30;;;;;;;19.02;43.57;102465.50;4994917;28;20041;-72
2022/01/27 07:08:38;;;;;;;20.65;4.40;;;;;;;19.11;43.44;102469.06;4994969;28;20049;-72
2022/01/27 07:11:05;;;;;;;12.77;3.40;;;;;;;19.00;43.59;102471.38;4994553;28;20069;-72
2022/01/27 07:13:31;;;;;;;13.85;2.58;;;;;;;19.13;43.12;102483.44;4994882;28;20359;-72
2022/01/27 07:15:57;;;;;;;10.75;3.13;;;;;;;19.10;43.26;102484.88;4994185;28;20085;-72
2022/01/27 07:18:24;;;;;;;10.98;2.72;;;;;;;19.10;43.47;102486.84;4994510;28;20109;-72
2022/01/27 07:20:50;;;;;;;12.82;4.05;;;;;;;19.15;43.22;102496.94;4994426;28;20037;-71
2022/01/27 07:23:16;;;;;;;9.02;2.50;;;;;;;19.21;43.18;102496.44;4994396;28;20516;-72
2022/01/27 07:25:42;;;;;;;10.57;3.40;;;;;;;19.15;43.34;102496.94;4994330;28;20064;-74
2022/01/27 07:28:07;;;;;;;13.43;2.60;;;;;;;19.15;43.23;102508.84;4994260;28;20121;-71
2022/01/27 07:30:33;;;;;;;14.05;2.80;;;;;;;19.25;42.99;102502.94;4994235;28;20038;-71
2022/01/27 07:32:58;;;;;;;11.13;2.75;;;;;;;19.13;43.29;102511.94;4994248;28;20038;-72
2022/01/27 07:35:24;;;;;;;16.90;3.42;;;;;;;19.23;42.99;102512.75;4994162;28;20396;-72
2022/01/27 07:37:50;;;;;;;11.77;2.67;;;;;;;19.25;42.92;102527.06;4994052;28;20037;-71
2022/01/27 07:40:15;;;;;;;14.88;4.10;;;;;;;19.13;43.13;102523.03;4994037;28;20042;-72
2022/01/27 07:42:41;;;;;;;12.98;3.80;;;;;;;19.19;43.06;102543.03;4993965;28;20109;-73
2022/01/27 07:45:08;;;;;;;10.40;3.13;;;;;;;19.23;42.95;102555.13;4994047;28;20022;-71
2022/01/27 07:47:34;;;;;;;12.82;3.17;;;;;;;19.22;42.85;102556.25;4993683;28;20129;-72
2022/01/27 07:50:00;;;;;;;11.52;3.25;;;;;;;19.30;42.44;102577.59;4993836;28;20033;-73
2022/01/27 07:52:26;;;;;;;10.25;2.08;;;;;;;19.20;42.76;102571.59;4993923;28;20034;-73
2022/01/27 07:54:51;;;;;;;10.73;2.92;;;;;;;19.15;42.67;102578.09;4993744;28;20496;-73
2022/01/27 07:57:17;;;;;;;12.35;3.65;;;;;;;19.00;42.98;102582.19;4993657;28;20034;-73
2022/01/27 07:59:43;;;;;;;19.83;3.05;;;;;;;18.90;42.84;102590.00;4990356;28;20038;-73
2022/01/27 08:02:09;;;;;;;13.05;2.95;;;;;;;18.75;43.14;102588.53;4991240;28;20248;-75
2022/01/27 08:04:34;;;;;;;12.95;3.00;;;;;;;18.64;43.18;102599.06;4993513;28;20117;-73
2022/01/27 08:07:03;;;;;;;12.57;2.85;;;;;;;18.59;43.31;102599.22;4993368;28;20038;-73
2022/01/27 08:09:29;;;;;;;14.57;3.33;;;;;;;18.67;42.88;102612.31;4993433;28;20041;-74
2022/01/27 08:11:55;;;;;;;17.83;3.50;;;;;;;18.54;42.93;102621.50;4993394;28;20053;-74
2022/01/27 08:14:21;;;;;;;15.80;3.50;;;;;;;18.50;43.12;102620.50;4993257;28;20113;-75
2022/01/27 08:16:47;;;;;;;19.42;5.07;;;;;;;18.36;43.08;102626.16;4993280;28;20157;-74
2022/01/27 08:19:12;;;;;;;11.85;3.15;;;;;;;18.23;43.40;102622.41;4993057;28;20030;-74
2022/01/27 08:21:38;;;;;;;15.32;3.15;;;;;;;18.21;43.36;102624.66;4978407;28;20033;-74
2022/01/27 08:24:04;;;;;;;14.02;3.40;;;;;;;18.27;43.19;102628.09;4971261;28;21125;-74
2022/01/27 08:26:38;;;;;;;17.08;3.22;;;;;;;18.19;43.26;102628.88;4965761;28;20108;-74
2022/01/27 08:29:15;;;;;;;12.88;3.30;;;;;;;18.15;43.41;102637.00;4991945;28;20030;-73
2022/01/27 08:31:54;;;;;;;17.35;4.32;;;;;;;18.12;43.25;102643.16;4990110;28;20057;-73
2022/01/27 08:34:35;;;;;;;17.50;3.55;;;;;;;18.01;43.62;102641.81;4991917;28;20048;-73
2022/01/27 08:37:10;;;;;;;17.75;3.15;;;;;;;17.93;43.54;102648.94;4992056;28;20030;-75
2022/01/27 08:39:37;;;;;;;12.93;3.03;;;;;;;17.96;43.36;102647.47;4992433;28;20038;-73
2022/01/27 08:42:04;;;;;;;17.23;3.67;;;;;;;17.94;43.50;102656.09;4992997;28;20033;-76
2022/01/27 08:44:29;;;;;;;14.35;3.35;;;;;;;17.92;43.42;102649.25;4992550;28;20077;-72
2022/01/27 08:46:55;;;;;;;15.57;3.20;;;;;;;17.96;42.98;102648.28;4992454;28;20046;-72
2022/01/27 08:49:26;;;;;;;16.08;3.22;;;;;;;17.96;43.07;102656.59;4992681;28;20432;-72
2022/01/27 08:51:53;;;;;;;12.63;2.60;;;;;;;17.95;43.10;102657.72;4992895;28;20026;-72
2022/01/27 08:54:19;;;;;;;10.48;3.38;;;;;;;17.92;43.10;102665.84;4992768;28;20482;-74
2022/01/27 08:56:44;;;;;;;15.70;3.67;;;;;;;17.79;43.41;102666.72;4997672;28;20042;-72
2022/01/27 08:59:10;;;;;;;12.98;2.75;;;;;;;17.88;43.14;102662.06;4992736;28;20393;-72
2022/01/27 09:01:37;;;;;;;12.00;3.30;;;;;;;17.89;42.98;102672.81;4991281;28;20038;-72
2022/01/27 09:04:04;;;;;;;13.20;2.90;;;;;;;17.91;42.92;102676.09;4992769;28;20473;-72
2022/01/27 09:06:29;;;;;;;9.88;2.92;;;;;;;17.86;43.14;102672.63;4992712;28;20066;-73
2022/01/27 09:08:55;;;;;;;11.82;2.75;;;;;;;17.84;43.05;102674.91;4992611;28;20460;-73
2022/01/27 09:11:21;;;;;;;10.35;2.63;;;;;;;17.82;43.11;102661.38;4992412;28;20030;-73
2022/01/27 09:13:47;;;;;;;16.90;3.05;;;;;;;17.76;43.49;102668.19;4992619;28;20036;-72
2022/01/27 09:16:13;;;;;;;15.32;4.22;;;;;;;17.90;42.85;102668.09;4992901;28;20065;-72
2022/01/27 09:18:39;;;;;;;9.57;2.80;;;;;;;17.85;43.21;102671.00;4991906;28;20038;-72
2022/01/27 09:21:11;;;;;;;9.95;3.03;;;;;;;17.86;43.33;102675.41;4975750;28;20027;-74
2022/01/27 09:23:37;;;;;;;9.57;2.50;;;;;;;17.75;43.62;102685.88;4973295;28;20089;-73
2022/01/27 09:26:07;;;;;;;16.80;3.10;;;;;;;17.69;43.88;102689.91;4973088;28;20031;-71
2022/01/27 09:28:33;;;;;;;11.43;3.17;;;;;;;17.85;43.52;102693.13;4973344;28;20089;-71
2022/01/27 09:30:59;;;;;;;11.55;2.45;;;;;;;17.92;43.34;102676.91;4985946;28;21277;-74
2022/01/27 09:33:25;;;;;;;11.48;2.63;;;;;;;17.89;43.32;102694.13;4991698;28;20535;-72
2022/01/27 09:35:51;;;;;;;13.43;2.38;;;;;;;17.88;43.60;102711.84;4992417;28;20057;-73
2022/01/27 09:38:16;;;;;;;11.60;2.63;;;;;;;17.95;43.35;102714.97;4993896;28;20042;-76
2022/01/27 09:40:43;;;;;;;7.75;2.55;;;;;;;17.95;43.37;102726.88;4996073;28;20041;-75
2022/01/27 09:43:09;;;;;;;16.67;2.67;;;;;;;17.91;43.39;102730.56;4996369;28;20408;-75
2022/01/27 09:45:38;;;;;;;9.18;3.65;;;;;;;17.94;43.58;102724.41;4980443;28;20022;-73
2022/01/27 09:48:12;;;;;;;6.32;2.25;;;;;;;18.11;43.30;102726.47;4979862;28;20083;-74
2022/01/27 09:53:10;;;;;;;14.50;3.40;;;;;;;18.06;43.94;102727.44;4979897;28;20023;-74
2022/01/27 09:55:37;;;;;;;11.73;3.03;;;;;;;18.33;43.45;102720.91;4979413;28;20590;-72
2022/01/27 09:58:04;;;;;;;12.10;3.10;;;;;;;18.21;43.98;102727.03;4979796;28;20030;-73
2022/01/27 10:00:30;;;;;;;10.02;2.45;;;;;;;18.39;44.08;102740.97;4979907;28;20035;-74
2022/01/27 10:03:13;;;;;;;16.58;3.10;;;;;;;18.26;44.23;102740.72;4982955;28;20037;-73
2022/01/27 10:05:41;;;;;;;15.38;4.15;;;;;;;18.49;43.89;102740.69;4994761;28;20042;-72
2022/01/27 10:08:17;;;;;;;10.23;2.45;;;;;;;18.57;43.56;102737.94;4995210;28;20080;-73
2022/01/27 10:10:45;;;;;;;12.90;2.83;;;;;;;18.69;43.41;102734.63;4995683;28;20054;-73
2022/01/27 10:13:28;;;;;;;11.65;3.47;;;;;;;18.63;43.72;102738.63;4995602;28;20476;-72
2022/01/27 10:15:56;;;;;;;17.10;3.60;;;;;;;18.98;43.28;102747.91;4995588;28;20022;-75
2022/01/27 10:18:25;;;;;;;9.32;2.85;;;;;;;18.98;43.67;102770.06;5005286;28;20018;-75
2022/01/27 10:20:51;;;;;;;11.48;2.63;;;;;;;19.08;43.55;102763.41;5005349;28;20073;-73
2022/01/27 10:23:21;;;;;;;10.68;2.20;;;;;;;19.07;43.42;102764.56;5002861;28;20457;-74
2022/01/27 10:25:55;;;;;;;14.57;2.85;;;;;;;19.11;43.59;102776.63;5004607;28;20500;-73
2022/01/27 10:29:01;;;;;;;13.70;3.58;;;;;;;19.17;43.32;102780.88;5001161;28;20023;-73
2022/01/27 10:31:23;;;;;;;;;;;;;;;19.28;43.08;102785.00;5001940;28;20038;-73
2022/01/27 10:33:53;;;;;;;7.97;2.30;;;;;;;19.12;43.39;102792.94;5003543;28;19914;-74
2022/01/27 10:36:21;;;;;;;11.02;3.38;;;;;;;19.33;43.00;102786.78;4996617;28;20485;-73
2022/01/27 10:38:50;;;;;;;11.23;3.22;;;;;;;19.21;43.19;102800.47;5003908;28;20577;-73
2022/01/27 10:41:15;;;;;;;9.30;2.90;;;;;;;19.31;42.94;102805.69;5004796;28;20030;-71
2022/01/27 10:43:41;;;;;;;14.80;3.00;;;;;;;19.29;42.98;102808.78;5003217;28;20029;-70
2022/01/27 10:48:50;;;;;;;13.20;2.83;;;;;;;19.34;42.88;102808.63;5004704;28;20042;-72
2022/01/27 10:51:23;;;;;;;8.40;3.35;;;;;;;18.96;43.64;102799.22;5003999;28;20029;-72
2022/01/27 10:54:06;;;;;;;10.73;2.72;;;;;;;19.27;42.98;102807.47;5000159;28;20027;-72
2022/01/27 10:56:34;;;;;;;11.75;2.70;;;;;;;19.39;42.61;102797.38;4979617;28;20039;-73
2022/01/27 10:59:02;;;;;;;15.00;3.25;;;;;;;19.39;42.50;102800.16;4973712;28;20030;-73
2022/01/27 11:01:36;;;;;;;13.05;3.20;;;;;;;19.08;43.61;102799.44;4973466;28;20031;-71
2022/01/27 11:04:05;;;;;;;16.90;4.53;;;;;;;19.14;43.12;102809.25;4974526;28;20176;-71
2022/01/27 11:06:33;;;;;;;9.18;2.10;;;;;;;19.31;42.82;102811.22;4982841;28;20030;-73
2022/01/27 11:09:06;;;;;;;11.07;2.70;;;;;;;18.98;43.63;102819.94;4992719;28;20117;-75
2022/01/27 11:11:33;;;;;;;9.85;3.03;;;;;;;19.21;43.15;102826.22;4992594;28;20050;-74
2022/01/27 11:13:59;;;;;;;10.10;2.42;;;;;;;19.38;42.70;102834.56;4992668;28;20027;-74
2022/01/27 11:16:34;;;;;;;8.30;1.92;;;;;;;19.45;42.51;102834.09;4992653;28;20400;-73
2022/01/27 11:19:15;;;;;;;10.52;2.63;;;;;;;19.58;42.47;102835.16;4992814;28;20022;-74
2022/01/27 11:21:43;;;;;;;9.95;2.75;;;;;;;19.40;43.02;102839.78;4993277;28;20030;-72
2022/01/27 11:24:22;;;;;;;10.63;2.63;;;;;;;19.28;42.97;102837.66;4994257;28;20029;-72
2022/01/27 11:26:52;;;;;;;10.82;2.78;;;;;;;19.40;42.89;102837.81;4994125;28;20034;-74
2022/01/27 11:29:19;;;;;;;10.90;3.25;;;;;;;19.51;42.70;102834.78;4994182;28;20485;-73
2022/01/27 11:32:17;;;;;;;14.27;2.60;;;;;;;19.55;42.55;102839.31;4992991;28;20053;-73
2022/01/27 11:34:45;;;;;;;9.63;2.60;;;;;;;19.50;42.51;102833.97;4994313;28;20034;-73
2022/01/27 11:37:11;;;;;;;9.05;2.25;;;;;;;19.60;42.55;102830.09;4992443;28;20054;-74
2022/01/27 11:40:07;;;;;;;12.13;2.15;;;;;;;19.55;42.57;102835.75;4994328;28;20226;-73
2022/01/27 11:42:37;;;;;;;9.02;2.20;;;;;;;19.61;42.23;102843.63;4993110;28;20625;-73
2022/01/27 11:45:21;;;;;;;;;;;;;;;19.77;41.74;102846.72;4994441;28;20018;-75
2022/01/27 11:48:06;;;;;;;9.38;1.95;;;;;;;19.72;41.71;102852.44;4993778;28;20445;-72
2022/01/27 11:51:15;;;;;;;10.45;2.38;;;;;;;20.07;41.38;102855.25;4993980;28;20332;-75
2022/01/27 11:53:36;;;;;;;5.75;1.77;;;;;;;19.90;41.38;102856.06;4992487;28;20039;-72
2022/01/27 11:56:07;;;;;;;8.05;2.70;;;;;;;20.03;41.42;102854.28;4993716;28;20058;-71
2022/01/27 11:59:03;;;;;;;8.07;2.72;;;;;;;20.07;41.34;102866.34;4993526;28;20030;-72
2022/01/27 12:01:34;;;;;;;5.95;1.92;;;;;;;20.09;41.13;102861.28;4992029;28;20042;-73
2022/01/27 12:04:06;;;;;;;7.47;1.85;;;;;;;20.10;41.37;102871.22;4993851;28;20116;-74
2022/01/27 12:06:33;;;;;;;4.97;1.83;;;;;;;20.29;41.04;102857.84;4991716;28;20045;-74
2022/01/27 12:09:17;;;;;;;7.32;2.00;;;;;;;20.33;40.52;102861.59;4993307;28;20030;-73
2022/01/27 12:11:50;;;;;;;6.70;2.25;;;;;;;20.16;40.34;102859.63;4993670;28;20041;-74
2022/01/27 12:14:21;;;;;;;5.95;1.70;;;;;;;20.41;40.25;102860.78;4993310;28;20033;-72
2022/01/27 12:17:06;;;;;;;7.93;1.45;;;;;;;20.10;40.06;102862.91;4993425;28;20041;-73